createdAt,value
2022-09-28T00:01:06.634Z,10.39
2022-09-28T00:03:34.286Z,10.37
2022-09-28T00:06:04.313Z,10.22
2022-09-28T00:08:32.368Z,10.31
2022-09-28T00:11:00.630Z,10.31
2022-09-28T00:13:29.396Z,10.25
2022-09-28T00:16:04.151Z,10.05
2022-09-28T00:18:32.217Z,9.99
2022-09-28T00:21:06.002Z,9.95
2022-09-28T00:23:34.169Z,10.09
2022-09-28T00:26:05.642Z,10.16
2022-09-28T00:28:33.261Z,10.30
2022-09-28T00:31:02.928Z,10.18
2022-09-28T00:33:30.554Z,9.91
2022-09-28T00:35:59.274Z,9.98
2022-09-28T00:38:28.394Z,9.85
2022-09-28T00:40:56.696Z,10.11
2022-09-28T00:43:25.304Z,9.81
2022-09-28T00:46:00.349Z,9.87
2022-09-28T00:48:33.439Z,9.90
2022-09-28T00:51:09.977Z,10.09
2022-09-28T00:53:40.563Z,10.03
2022-09-28T00:56:12.529Z,10.01
2022-09-28T00:58:44.320Z,10.05
2022-09-28T01:01:13.297Z,9.89
2022-09-28T01:03:45.390Z,10.00
2022-09-28T01:06:19.256Z,10.16
2022-09-28T01:08:50.576Z,10.12
2022-09-28T01:11:19.578Z,9.81
2022-09-28T01:13:49.437Z,9.92
2022-09-28T01:16:27.621Z,10.08
2022-09-28T01:19:05.708Z,10.03
2022-09-28T01:21:46.892Z,10.13
2022-09-28T01:24:33.616Z,10.04
2022-09-28T01:27:10.674Z,10.20
2022-09-28T01:29:46.986Z,10.22
2022-09-28T01:32:23.437Z,10.20
2022-09-28T01:34:58.740Z,9.98
2022-09-28T01:37:35.166Z,10.01
2022-09-28T01:40:04.954Z,9.79
2022-09-28T01:42:38.200Z,9.84
2022-09-28T01:45:11.675Z,9.94
2022-09-28T01:47:42.010Z,10.12
2022-09-28T01:50:15.273Z,9.87
2022-09-28T01:52:50.642Z,9.81
2022-09-28T01:55:24.429Z,9.82
2022-09-28T01:57:58.668Z,9.93
2022-09-28T02:00:28.218Z,9.87
2022-09-28T02:03:02.858Z,9.98
2022-09-28T02:05:49.669Z,9.80
2022-09-28T02:08:25.386Z,9.89
2022-09-28T02:10:59.135Z,9.87
2022-09-28T02:13:34.231Z,9.74
2022-09-28T02:16:07.895Z,9.86
2022-09-28T02:18:36.071Z,10.05
2022-09-28T02:21:11.023Z,9.71
2022-09-28T02:23:44.296Z,9.88
2022-09-28T02:26:18.044Z,9.74
2022-09-28T02:28:47.166Z,9.77
2022-09-28T02:31:15.546Z,9.84
2022-09-28T02:33:45.144Z,10.02
2022-09-28T02:36:13.562Z,9.81
2022-09-28T02:38:41.194Z,9.92
2022-09-28T02:41:17.587Z,9.93
2022-09-28T02:43:56.895Z,10.00
2022-09-28T02:46:33.870Z,10.06
2022-09-28T02:49:22.676Z,9.86
2022-09-28T02:52:15.065Z,9.77
2022-09-28T02:55:05.321Z,10.14
2022-09-28T02:57:48.428Z,10.13
2022-09-28T03:00:21.256Z,10.16
2022-09-28T03:03:00.138Z,10.14
2022-09-28T03:05:36.394Z,10.08
2022-09-28T03:08:08.228Z,10.18
2022-09-28T03:10:43.181Z,10.29
2022-09-28T03:13:12.133Z,10.29
2022-09-28T03:15:46.415Z,10.34
2022-09-28T03:18:16.213Z,10.29
2022-09-28T03:20:44.224Z,10.42
2022-09-28T03:23:24.259Z,10.29
2022-09-28T03:25:53.054Z,10.41
2022-09-28T03:28:21.245Z,10.61
2022-09-28T03:30:51.423Z,10.58
2022-09-28T03:33:19.728Z,10.52
2022-09-28T03:35:48.187Z,10.47
2022-09-28T03:38:16.927Z,10.51
2022-09-28T03:40:45.516Z,10.52
2022-09-28T03:43:13.186Z,10.25
2022-09-28T03:45:41.776Z,10.28
2022-09-28T03:48:10.805Z,10.31
2022-09-28T03:50:38.768Z,10.12
2022-09-28T03:53:06.349Z,9.97
2022-09-28T03:55:34.437Z,9.94
2022-09-28T03:58:02.438Z,10.01
2022-09-28T04:00:30.597Z,10.12
2022-09-28T04:02:58.875Z,9.96
2022-09-28T04:05:27.995Z,9.87
2022-09-28T04:07:58.000Z,9.80
2022-09-28T04:10:26.383Z,9.52
2022-09-28T04:12:55.853Z,9.62
2022-09-28T04:15:23.933Z,9.64
2022-09-28T04:17:52.130Z,9.86
2022-09-28T04:20:48.561Z,9.92
2022-09-28T04:23:16.231Z,10.11
2022-09-28T04:25:48.093Z,10.23
2022-09-28T04:28:34.153Z,10.03
2022-09-28T04:31:02.319Z,10.07
2022-09-28T04:33:30.087Z,10.14
2022-09-28T04:36:01.074Z,10.03
2022-09-28T04:38:48.822Z,10.25
2022-09-28T04:41:17.203Z,10.25
2022-09-28T04:43:47.829Z,10.30
2022-09-28T04:46:17.715Z,10.29
2022-09-28T04:49:11.396Z,10.26
2022-09-28T04:51:54.457Z,10.24
2022-09-28T04:54:22.040Z,10.41
2022-09-28T04:56:52.965Z,10.33
2022-09-28T04:59:20.597Z,10.45
2022-09-28T05:01:49.423Z,10.38
2022-09-28T05:04:35.547Z,10.42
2022-09-28T05:07:18.287Z,10.49
2022-09-28T05:09:45.875Z,10.50
2022-09-28T05:12:15.867Z,10.55
2022-09-28T05:14:43.471Z,10.63
2022-09-28T05:17:11.831Z,10.63
2022-09-28T05:20:09.892Z,10.61
2022-09-28T05:22:39.169Z,10.65
2022-09-28T05:25:09.721Z,10.61
2022-09-28T05:27:49.301Z,10.63
2022-09-28T05:30:35.974Z,10.66
2022-09-28T05:33:22.377Z,10.64
2022-09-28T05:36:01.047Z,10.67
2022-09-28T05:38:31.961Z,10.75
2022-09-28T05:41:03.221Z,10.77
2022-09-28T05:43:33.953Z,10.62
2022-09-28T05:46:04.902Z,10.69
2022-09-28T05:48:34.453Z,10.70
2022-09-28T05:51:03.765Z,10.57
2022-09-28T05:53:32.805Z,10.66
2022-09-28T05:56:00.717Z,10.65
2022-09-28T05:58:31.579Z,10.66
2022-09-28T06:01:00.451Z,10.66
2022-09-28T06:03:29.003Z,10.69
2022-09-28T06:05:56.730Z,10.72
2022-09-28T06:08:25.516Z,10.76
2022-09-28T06:11:06.299Z,10.82
2022-09-28T06:13:35.334Z,10.87
2022-09-28T06:16:04.745Z,10.83
2022-09-28T06:18:33.158Z,10.77
2022-09-28T06:21:19.528Z,10.80
2022-09-28T06:23:49.329Z,10.80
2022-09-28T06:26:19.866Z,10.79
2022-09-28T06:28:48.455Z,10.90
2022-09-28T06:31:17.195Z,10.93
2022-09-28T06:33:49.888Z,10.83
2022-09-28T06:36:19.236Z,10.91
2022-09-28T06:38:47.673Z,10.86
2022-09-28T06:41:18.338Z,10.87
2022-09-28T06:43:48.621Z,10.82
2022-09-28T06:46:35.648Z,10.73
2022-09-28T06:49:30.911Z,10.72
2022-09-28T06:52:11.912Z,10.70
2022-09-28T06:54:58.974Z,10.73
2022-09-28T06:57:38.029Z,10.63
2022-09-28T07:00:08.503Z,10.68
2022-09-28T07:02:37.191Z,10.59
2022-09-28T07:05:28.714Z,10.66
2022-09-28T07:08:20.523Z,10.82
2022-09-28T07:11:06.498Z,10.72
2022-09-28T07:13:50.833Z,10.81
2022-09-28T07:16:27.301Z,10.84
2022-09-28T07:18:58.340Z,10.82
2022-09-28T07:21:30.207Z,10.82
2022-09-28T07:24:02.676Z,10.74
2022-09-28T07:26:49.141Z,10.83
2022-09-28T07:29:34.407Z,10.67
2022-09-28T07:32:23.749Z,10.57
2022-09-28T07:35:16.284Z,10.88
2022-09-28T07:37:50.010Z,10.76
2022-09-28T07:40:48.632Z,10.58
2022-09-28T07:43:20.935Z,10.61
2022-09-28T07:45:52.868Z,10.61
2022-09-28T07:48:23.448Z,10.49
2022-09-28T07:51:11.494Z,10.17
2022-09-28T07:53:48.000Z,10.46
2022-09-28T07:56:30.950Z,10.30
2022-09-28T07:59:08.283Z,10.20
2022-09-28T08:02:09.791Z,10.36
2022-09-28T08:04:40.535Z,10.44
2022-09-28T08:07:10.297Z,10.45
2022-09-28T08:09:38.378Z,10.41
2022-09-28T08:12:25.957Z,9.57
2022-09-28T08:15:15.958Z,9.68
2022-09-28T08:17:47.705Z,9.56
2022-09-28T08:20:35.094Z,9.18
2022-09-28T08:23:06.206Z,8.93
2022-09-28T08:25:36.632Z,9.02
2022-09-28T08:28:07.438Z,9.35
2022-09-28T08:30:41.326Z,9.50
2022-09-28T08:33:29.096Z,9.24
2022-09-28T08:36:16.474Z,9.11
2022-09-28T08:39:10.805Z,9.23
2022-09-28T08:42:32.150Z,9.43
2022-09-28T08:45:26.947Z,9.21
2022-09-28T08:48:48.167Z,9.52
2022-09-28T08:51:59.961Z,9.61
2022-09-28T08:54:41.706Z,9.78
2022-09-28T08:57:21.726Z,9.71
2022-09-28T08:59:52.467Z,9.96
2022-09-28T09:02:33.271Z,9.94
2022-09-28T09:05:19.565Z,10.27
2022-09-28T09:08:22.476Z,10.28
2022-09-28T09:10:53.706Z,9.98
2022-09-28T09:14:01.233Z,10.12
2022-09-28T09:16:38.708Z,10.28
2022-09-28T09:19:36.602Z,10.33
2022-09-28T09:22:41.693Z,10.61
2022-09-28T09:25:24.473Z,10.57
2022-09-28T09:28:10.850Z,10.32
2022-09-28T09:30:49.824Z,10.62
2022-09-28T09:33:42.339Z,10.60
2022-09-28T09:36:49.467Z,10.47
2022-09-28T09:39:42.383Z,10.82
2022-09-28T09:42:52.498Z,10.44
2022-09-28T09:45:54.215Z,10.63
2022-09-28T09:48:51.674Z,10.50
2022-09-28T09:51:26.457Z,10.74
2022-09-28T09:53:59.672Z,10.75
2022-09-28T09:56:35.721Z,10.93
2022-09-28T09:59:15.988Z,10.63
2022-09-28T10:02:03.933Z,10.75
2022-09-28T10:04:56.015Z,10.73
2022-09-28T10:07:42.587Z,10.94
2022-09-28T10:10:14.427Z,10.98
2022-09-28T10:12:49.789Z,10.85
2022-09-28T10:15:25.231Z,11.02
2022-09-28T10:18:15.673Z,11.29
2022-09-28T10:20:46.955Z,11.45
2022-09-28T10:23:41.765Z,11.54
2022-09-28T10:26:16.098Z,11.72
2022-09-28T10:28:49.057Z,11.58
2022-09-28T10:31:43.082Z,11.35
2022-09-28T10:34:33.328Z,11.61
2022-09-28T10:37:11.563Z,11.72
2022-09-28T10:40:06.562Z,11.81
2022-09-28T10:42:36.366Z,11.90
2022-09-28T10:45:21.901Z,11.96
2022-09-28T10:47:51.626Z,12.13
2022-09-28T10:50:22.281Z,12.02
2022-09-28T10:52:53.492Z,12.08
2022-09-28T10:55:42.013Z,11.87
2022-09-28T10:58:26.285Z,12.08
2022-09-28T11:01:02.250Z,12.00
2022-09-28T11:03:32.257Z,11.89
2022-09-28T11:06:08.925Z,11.73
2022-09-28T11:08:44.620Z,11.62
2022-09-28T11:11:20.242Z,11.48
2022-09-28T11:13:55.561Z,10.93
2022-09-28T11:16:30.035Z,10.93
2022-09-28T11:19:05.265Z,10.66
2022-09-28T11:21:43.388Z,10.64
2022-09-28T11:24:21.482Z,10.65
2022-09-28T11:26:54.023Z,10.28
2022-09-28T11:29:27.835Z,10.42
2022-09-28T11:32:16.195Z,10.20
2022-09-28T11:35:04.585Z,10.00
2022-09-28T11:37:51.428Z,10.26
2022-09-28T11:40:40.766Z,10.26
2022-09-28T11:43:20.775Z,10.20
2022-09-28T11:45:56.223Z,10.54
2022-09-28T11:48:28.373Z,10.29
2022-09-28T11:51:03.996Z,10.20
2022-09-28T11:53:37.531Z,10.37
2022-09-28T11:56:16.301Z,10.38
2022-09-28T11:58:47.434Z,10.41
2022-09-28T12:01:27.312Z,10.38
2022-09-28T12:04:20.797Z,10.41
2022-09-28T12:06:56.942Z,10.50
2022-09-28T12:09:33.854Z,10.34
2022-09-28T12:12:21.394Z,10.21
2022-09-28T12:14:54.053Z,10.21
2022-09-28T12:17:28.029Z,10.17
2022-09-28T12:20:02.547Z,10.36
2022-09-28T12:22:36.086Z,10.36
2022-09-28T12:25:07.663Z,10.50
2022-09-28T12:27:42.459Z,10.57
2022-09-28T12:30:15.909Z,10.56
2022-09-28T12:32:48.199Z,10.61
2022-09-28T12:35:26.369Z,10.73
2022-09-28T12:38:10.068Z,10.28
2022-09-28T12:40:42.565Z,10.43
2022-09-28T12:43:34.048Z,10.50
2022-09-28T12:46:22.494Z,10.49
2022-09-28T12:52:29.559Z,10.49
2022-09-28T12:55:25.625Z,10.56
2022-09-28T12:57:59.853Z,10.74
2022-09-28T13:00:37.933Z,10.67
2022-09-28T13:03:21.945Z,10.90
2022-09-28T13:06:25.423Z,10.88
2022-09-28T13:09:13.992Z,10.97
2022-09-28T13:11:54.784Z,11.05
2022-09-28T13:14:54.997Z,11.09
2022-09-28T13:17:40.231Z,11.18
2022-09-28T13:20:21.824Z,11.07
2022-09-28T13:22:57.020Z,10.52
2022-09-28T13:25:28.243Z,10.43
2022-09-28T13:28:02.951Z,10.49
2022-09-28T13:30:31.965Z,10.69
2022-09-28T13:33:02.648Z,10.74
2022-09-28T13:35:31.319Z,10.64
2022-09-28T13:38:32.617Z,10.70
2022-09-28T13:41:16.926Z,10.78
2022-09-28T13:44:05.433Z,10.65
2022-09-28T13:46:43.057Z,10.64
2022-09-28T13:49:17.144Z,10.70
2022-09-28T13:51:58.144Z,10.94
2022-09-28T13:54:41.367Z,10.94
2022-09-28T13:57:19.980Z,11.05
2022-09-28T13:59:59.059Z,11.11
2022-09-28T14:02:34.981Z,11.22
2022-09-28T14:05:05.023Z,10.78
2022-09-28T14:07:59.815Z,10.62
2022-09-28T14:10:52.389Z,10.25
2022-09-28T14:13:56.598Z,10.61
2022-09-28T14:16:28.794Z,10.51
2022-09-28T14:19:00.531Z,10.73
2022-09-28T14:21:52.719Z,10.60
2022-09-28T14:24:31.226Z,10.45
2022-09-28T14:27:42.141Z,10.49
2022-09-28T14:30:23.255Z,10.24
2022-09-28T14:32:56.315Z,10.41
2022-09-28T14:35:32.655Z,10.29
2022-09-28T14:38:22.777Z,10.14
2022-09-28T14:41:11.481Z,10.38
2022-09-28T14:43:59.463Z,10.18
2022-09-28T14:46:33.085Z,10.15
2022-09-28T14:49:04.799Z,10.23
2022-09-28T14:52:07.552Z,10.36
2022-09-28T14:54:50.477Z,10.16
2022-09-28T14:57:21.716Z,10.13
2022-09-28T14:59:49.761Z,9.98
2022-09-28T15:02:25.246Z,9.74
2022-09-28T15:04:59.821Z,10.04
2022-09-28T15:07:33.202Z,9.67
2022-09-28T15:10:02.071Z,9.81
2022-09-28T15:12:31.710Z,9.73
2022-09-28T15:15:02.376Z,9.84
2022-09-28T15:17:38.546Z,9.92
2022-09-28T15:20:25.083Z,9.76
2022-09-28T15:22:57.462Z,9.66
2022-09-28T15:25:27.782Z,9.78
2022-09-28T15:27:57.042Z,9.85
2022-09-28T15:30:31.644Z,9.82
2022-09-28T15:33:15.681Z,9.81
2022-09-28T15:35:48.918Z,9.56
2022-09-28T15:38:18.270Z,9.40
2022-09-28T15:40:47.984Z,9.35
2022-09-28T15:43:26.857Z,9.38
2022-09-28T15:46:05.743Z,9.44
2022-09-28T15:48:41.662Z,9.27
2022-09-28T15:51:12.023Z,9.32
2022-09-28T15:53:44.759Z,9.30
2022-09-28T15:56:12.986Z,9.34
2022-09-28T15:58:40.761Z,9.38
2022-09-28T16:01:36.478Z,9.62
2022-09-28T16:04:40.425Z,9.61
2022-09-28T16:07:29.495Z,9.79
2022-09-28T16:10:03.100Z,9.94
2022-09-28T16:12:42.048Z,10.02
2022-09-28T16:15:20.284Z,10.08
2022-09-28T16:17:53.142Z,10.08
2022-09-28T16:20:29.579Z,10.11
2022-09-28T16:23:05.581Z,10.12
2022-09-28T16:25:37.570Z,10.16
2022-09-28T16:28:06.905Z,10.16
2022-09-28T16:30:35.655Z,10.15
2022-09-28T16:33:06.613Z,10.17
2022-09-28T16:35:51.225Z,10.20
2022-09-28T16:38:21.079Z,10.20
2022-09-28T16:40:51.577Z,10.14
2022-09-28T16:43:26.514Z,10.18
2022-09-28T16:45:57.479Z,10.19
2022-09-28T16:48:27.839Z,10.15
2022-09-28T16:50:55.870Z,10.11
2022-09-28T16:53:43.081Z,10.08
2022-09-28T16:56:11.981Z,10.13
2022-09-28T16:58:39.739Z,10.20
2022-09-28T17:01:08.666Z,10.18
2022-09-28T17:03:36.504Z,10.15
2022-09-28T17:06:06.590Z,10.15
2022-09-28T17:08:36.046Z,10.14
2022-09-28T17:11:24.290Z,10.12
2022-09-28T17:13:58.760Z,10.13
2022-09-28T17:17:03.807Z,10.08
2022-09-28T17:19:20.957Z,10.03
2022-09-28T17:21:49.844Z,10.04
2022-09-28T17:24:19.252Z,10.03
2022-09-28T17:26:48.996Z,9.97
2022-09-28T17:29:16.982Z,9.97
2022-09-28T17:31:46.603Z,10.00
2022-09-28T17:34:16.498Z,9.67
2022-09-28T17:36:45.157Z,9.58
2022-09-28T17:39:14.193Z,9.54
2022-09-28T17:41:43.175Z,9.53
2022-09-28T17:44:11.091Z,9.57
2022-09-28T17:46:41.234Z,9.51
2022-09-28T17:49:12.529Z,9.54
2022-09-28T17:51:40.318Z,9.50
2022-09-28T17:54:08.643Z,9.50
2022-09-28T17:56:38.009Z,9.55
2022-09-28T17:59:11.019Z,9.47
2022-09-28T18:01:40.299Z,9.58
2022-09-28T18:04:13.206Z,9.53
2022-09-28T18:06:47.315Z,9.42
2022-09-28T18:09:16.286Z,9.38
2022-09-28T18:11:46.024Z,9.68
2022-09-28T18:14:15.016Z,9.67
2022-09-28T18:16:43.128Z,9.59
2022-09-28T18:19:10.793Z,9.64
2022-09-28T18:21:38.450Z,9.69
2022-09-28T18:24:06.357Z,9.80
2022-09-28T18:26:34.315Z,9.73
2022-09-28T18:29:01.974Z,9.78
2022-09-28T18:31:31.396Z,9.85
2022-09-28T18:34:01.020Z,9.77
2022-09-28T18:36:30.020Z,9.83
2022-09-28T18:38:58.607Z,9.62
2022-09-28T18:41:26.555Z,9.60
2022-09-28T18:44:00.349Z,9.72
2022-09-28T18:46:28.853Z,9.82
2022-09-28T18:48:58.111Z,9.84
2022-09-28T18:51:26.725Z,9.89
2022-09-28T18:53:54.332Z,9.91
2022-09-28T18:56:22.606Z,9.91
2022-09-28T18:58:51.554Z,9.90
2022-09-28T19:01:30.496Z,9.91
2022-09-28T19:04:01.675Z,9.95
2022-09-28T19:06:30.100Z,9.89
2022-09-28T19:08:57.882Z,9.92
2022-09-28T19:11:26.805Z,9.85
2022-09-28T19:13:55.274Z,9.86
2022-09-28T19:16:25.406Z,9.89
2022-09-28T19:18:53.637Z,9.90
2022-09-28T19:21:23.067Z,9.91
2022-09-28T19:23:53.492Z,9.90
2022-09-28T19:26:23.409Z,9.82
2022-09-28T19:28:51.523Z,9.62
2022-09-28T19:31:19.611Z,9.64
2022-09-28T19:33:48.107Z,9.53
2022-09-28T19:36:18.339Z,9.23
2022-09-28T19:38:47.541Z,9.00
2022-09-28T19:41:39.558Z,9.03
2022-09-28T19:44:13.034Z,9.34
2022-09-28T19:46:41.448Z,9.47
2022-09-28T19:49:11.271Z,9.54
2022-09-28T19:51:51.527Z,9.57
2022-09-28T19:54:36.172Z,9.45
2022-09-28T19:57:08.128Z,9.44
2022-09-28T19:59:36.547Z,9.53
2022-09-28T20:02:04.571Z,9.40
2022-09-28T20:04:32.286Z,9.34
2022-09-28T20:07:00.211Z,9.25
2022-09-28T20:09:29.286Z,9.31
2022-09-28T20:11:57.182Z,9.35
2022-09-28T20:14:26.280Z,9.32
2022-09-28T20:16:58.398Z,9.09
2022-09-28T20:19:26.184Z,9.17
2022-09-28T20:21:54.777Z,9.17
2022-09-28T20:24:22.445Z,9.32
2022-09-28T20:26:51.486Z,9.37
2022-09-28T20:29:19.241Z,9.37
2022-09-28T20:31:46.965Z,9.38
2022-09-28T20:34:14.663Z,9.34
2022-09-28T20:36:42.397Z,9.22
2022-09-28T20:39:11.179Z,9.34
2022-09-28T20:41:39.221Z,9.34
2022-09-28T20:44:08.370Z,9.16
2022-09-28T20:46:37.315Z,9.10
2022-09-28T20:49:05.809Z,8.95
2022-09-28T20:51:33.967Z,8.88
2022-09-28T20:54:01.622Z,9.11
2022-09-28T20:56:34.847Z,8.87
2022-09-28T20:59:02.757Z,8.97
2022-09-28T21:01:31.927Z,9.09
2022-09-28T21:04:01.348Z,9.27
2022-09-28T21:06:30.987Z,9.23
2022-09-28T21:08:59.314Z,9.09
2022-09-28T21:11:28.390Z,9.23
2022-09-28T21:13:58.072Z,9.34
2022-09-28T21:16:26.958Z,9.22
2022-09-28T21:18:56.402Z,9.05
2022-09-28T21:21:25.918Z,8.91
2022-09-28T21:23:54.309Z,8.95
2022-09-28T21:26:25.919Z,9.04
2022-09-28T21:28:54.606Z,9.13
2022-09-28T21:31:28.552Z,9.15
2022-09-28T21:33:58.569Z,9.24
2022-09-28T21:36:27.032Z,9.30
2022-09-28T21:38:55.982Z,9.36
2022-09-28T21:41:24.164Z,9.39
2022-09-28T21:43:52.257Z,9.44
2022-09-28T21:46:20.330Z,9.41
2022-09-28T21:48:52.516Z,9.44
2022-09-28T21:51:23.096Z,9.48
2022-09-28T21:53:50.775Z,9.43
2022-09-28T21:56:19.046Z,9.44
2022-09-28T21:58:47.083Z,9.49
2022-09-28T22:01:16.784Z,9.56
2022-09-28T22:03:46.727Z,9.58
2022-09-28T22:06:16.157Z,9.53
2022-09-28T22:08:45.630Z,9.59
2022-09-28T22:11:15.723Z,9.60
2022-09-28T22:13:44.826Z,9.60
2022-09-28T22:16:14.607Z,9.53
2022-09-28T22:18:42.556Z,9.55
2022-09-28T22:21:13.558Z,9.54
2022-09-28T22:23:41.611Z,9.55
2022-09-28T22:26:13.126Z,9.56
2022-09-28T22:28:45.107Z,9.54
2022-09-28T22:31:13.010Z,9.48
2022-09-28T22:33:40.685Z,9.32
2022-09-28T22:36:08.850Z,9.34
2022-09-28T22:38:37.247Z,9.36
2022-09-28T22:41:05.117Z,9.33
2022-09-28T22:43:34.693Z,9.36
2022-09-28T22:46:04.603Z,9.34
2022-09-28T22:48:32.698Z,9.35
2022-09-28T22:51:01.121Z,9.34
2022-09-28T22:53:29.544Z,9.40
2022-09-28T22:55:58.522Z,9.39
2022-09-28T22:58:26.350Z,9.45
2022-09-28T23:00:57.825Z,9.47
2022-09-28T23:03:25.620Z,9.48
2022-09-28T23:05:54.198Z,9.45
2022-09-28T23:08:22.250Z,9.47
2022-09-28T23:10:50.178Z,9.43
2022-09-28T23:13:18.225Z,9.32
2022-09-28T23:15:56.990Z,9.27
2022-09-28T23:18:26.067Z,9.24
2022-09-28T23:20:55.288Z,9.21
2022-09-28T23:23:23.315Z,9.17
2022-09-28T23:25:51.245Z,9.15
2022-09-28T23:28:19.744Z,9.13
2022-09-28T23:30:48.225Z,9.11
2022-09-28T23:33:18.920Z,9.08
2022-09-28T23:35:47.241Z,9.10
2022-09-28T23:38:17.938Z,9.08
2022-09-28T23:40:46.683Z,9.11
2022-09-28T23:43:15.242Z,9.14
2022-09-28T23:45:44.106Z,9.17
2022-09-28T23:48:14.889Z,9.19
2022-09-28T23:50:44.873Z,9.21
2022-09-28T23:53:13.626Z,9.18
2022-09-28T23:55:42.422Z,9.17
2022-09-28T23:58:10.303Z,9.12
